Time;durP1;ratioP1;P1;durP2;ratioP2;P2;SDS_P1;SDS_P2;PMS_P1;PMS_P2;Temp;Humidity;BMP_temperature;BMP_pressure;BME280_temperature;BME280_humidity;BME280_pressure;Samples;Min_cycle;Max_cycle;Signal;HPM_P1;HPM_P2
2022/01/10 00:01:39;;;;;;;19.90;7.65;;;;;;;;;;4991519;28;20038;-36
2022/01/10 00:04:04;;;;;;;39.33;17.55;;;;;;;;;;4992305;28;20029;-40
2022/01/10 00:06:30;;;;;;;44.15;16.33;;;;;;;;;;4992059;28;20547;-37
2022/01/10 00:08:55;;;;;;;39.75;15.88;;;;;;;;;;4991581;28;20041;-38
2022/01/10 00:11:21;;;;;;;38.00;15.57;;;;;;;;;;4992731;28;20025;-38
2022/01/10 00:13:46;;;;;;;36.20;13.45;;;;;;;;;;4992607;28;20030;-38
2022/01/10 00:16:11;;;;;;;40.85;16.10;;;;;;;;;;4991123;28;20106;-39
2022/01/10 00:18:37;;;;;;;39.67;16.70;;;;;;;;;;4990767;28;20471;-36
2022/01/10 00:21:02;;;;;;;11.77;8.80;;;;;;;;;;4991062;28;20034;-36
2022/01/10 00:23:28;;;;;;;17.30;8.25;;;;;;;;;;4990808;28;20068;-36
2022/01/10 00:25:54;;;;;;;32.10;13.43;;;;;;;;;;4991002;28;20031;-36
2022/01/10 00:28:20;;;;;;;33.65;14.43;;;;;;;;;;4990769;28;20026;-36
2022/01/10 00:30:46;;;;;;;36.28;15.68;;;;;;;;;;4992150;28;20029;-38
2022/01/10 00:33:11;;;;;;;35.42;14.65;;;;;;;;;;4992838;28;20085;-37
2022/01/10 00:35:37;;;;;;;35.15;15.30;;;;;;;;;;4993173;28;20023;-38
2022/01/10 00:38:02;;;;;;;40.05;13.82;;;;;;;;;;4996177;28;20029;-39
2022/01/10 00:40:28;;;;;;;39.40;15.23;;;;;;;;;;4996414;28;20375;-37
2022/01/10 00:42:56;;;;;;;37.55;15.18;;;;;;;;;;4996112;28;20026;-36
2022/01/10 00:45:26;;;;;;;31.35;14.40;;;;;;;;;;4994768;28;20490;-36
2022/01/10 00:47:56;;;;;;;23.70;10.30;;;;;;;;;;4996078;28;20475;-36
2022/01/10 00:50:24;;;;;;;11.02;6.35;;;;;;;;;;4996508;28;20382;-35
2022/01/10 00:52:50;;;;;;;8.13;5.22;;;;;;;;;;4996069;28;20038;-38
2022/01/10 00:55:16;;;;;;;35.80;16.63;;;;;;;;;;4995736;28;20517;-37
2022/01/10 00:57:41;;;;;;;38.15;17.88;;;;;;;;;;4995800;28;20026;-38
2022/01/10 01:00:11;;;;;;;29.95;13.48;;;;;;;;;;4996321;28;20147;-38
2022/01/10 01:02:38;;;;;;;28.52;12.38;;;;;;;;;;4995667;28;20051;-38
2022/01/10 01:05:07;;;;;;;22.75;9.57;;;;;;;;;;4995943;28;20022;-38
2022/01/10 01:07:33;;;;;;;41.50;15.82;;;;;;;;;;4995716;28;20050;-36
2022/01/10 01:10:30;;;;;;;46.45;14.95;;;;;;;;;;4995808;28;20390;-36
2022/01/10 01:15:31;;;;;;;45.95;17.05;;;;;;;;;;4995511;28;20027;-36
2022/01/10 01:18:10;;;;;;;40.78;15.70;;;;;;;;;;4995493;28;20261;-36
2022/01/10 01:25:59;;;;;;;42.15;16.65;;;;;;;;;;4995596;28;20033;-36
2022/01/10 01:28:25;;;;;;;40.50;16.33;;;;;;;;;;4995476;28;20030;-37
2022/01/10 01:30:50;;;;;;;41.10;17.58;;;;;;;;;;4995483;28;20081;-36
2022/01/10 01:33:17;;;;;;;38.97;16.08;;;;;;;;;;4995327;28;20034;-36
2022/01/10 01:35:44;;;;;;;48.25;19.13;;;;;;;;;;4995115;28;20117;-38
2022/01/10 01:38:09;;;;;;;49.75;19.23;;;;;;;;;;4995046;28;20036;-36
2022/01/10 01:40:41;;;;;;;52.10;19.52;;;;;;;;;;4995295;28;20030;-36
2022/01/10 01:43:07;;;;;;;46.00;18.33;;;;;;;;;;4995356;28;20030;-37
2022/01/10 01:45:42;;;;;;;33.83;15.50;;;;;;;;;;4994955;28;20494;-36
2022/01/10 01:48:07;;;;;;;42.40;17.23;;;;;;;;;;4994118;28;20114;-36
2022/01/10 01:50:33;;;;;;;41.75;16.17;;;;;;;;;;4994854;28;20097;-36
2022/01/10 01:52:59;;;;;;;38.45;15.88;;;;;;;;;;4994668;28;20034;-36
2022/01/10 01:55:25;;;;;;;31.65;13.57;;;;;;;;;;4994680;28;20050;-36
2022/01/10 01:57:50;;;;;;;29.70;12.02;;;;;;;;;;4994671;28;20498;-36
2022/01/10 02:00:19;;;;;;;26.10;11.57;;;;;;;;;;4994625;28;20023;-35
2022/01/10 02:02:46;;;;;;;16.42;7.40;;;;;;;;;;4994581;28;20022;-35
2022/01/10 02:05:12;;;;;;;25.02;10.85;;;;;;;;;;4994858;28;20022;-36
2022/01/10 02:07:38;;;;;;;30.67;14.73;;;;;;;;;;4993586;28;20050;-36
2022/01/10 02:10:05;;;;;;;51.22;21.20;;;;;;;;;;4994696;28;20076;-35
2022/01/10 02:12:30;;;;;;;19.77;8.15;;;;;;;;;;4994639;28;20112;-36
2022/01/10 02:14:55;;;;;;;39.72;15.18;;;;;;;;;;4994664;28;20451;-36
2022/01/10 02:17:24;;;;;;;40.70;15.82;;;;;;;;;;4994296;28;20022;-37
2022/01/10 02:19:57;;;;;;;31.33;12.07;;;;;;;;;;4994530;28;20035;-37
2022/01/10 02:22:23;;;;;;;27.80;11.85;;;;;;;;;;4994228;28;20023;-36
2022/01/10 02:24:48;;;;;;;38.70;14.35;;;;;;;;;;4994244;28;20034;-37
2022/01/10 02:27:14;;;;;;;38.60;15.85;;;;;;;;;;4994195;28;20033;-36
2022/01/10 02:29:39;;;;;;;35.30;15.40;;;;;;;;;;4994164;28;20025;-36
2022/01/10 02:32:05;;;;;;;38.83;15.05;;;;;;;;;;4993882;28;20029;-37
2022/01/10 02:34:31;;;;;;;37.15;15.95;;;;;;;;;;4994230;28;20035;-36
2022/01/10 02:36:59;;;;;;;43.65;17.75;;;;;;;;;;4993976;28;20018;-36
2022/01/10 02:39:24;;;;;;;37.25;16.48;;;;;;;;;;4993862;28;20026;-36
2022/01/10 02:41:50;;;;;;;38.42;15.82;;;;;;;;;;4994135;28;20030;-36
2022/01/10 02:44:17;;;;;;;38.20;16.02;;;;;;;;;;4993868;28;20501;-36
2022/01/10 02:46:45;;;;;;;42.03;16.90;;;;;;;;;;4993826;28;20058;-36
2022/01/10 02:49:29;;;;;;;38.03;16.08;;;;;;;;;;4993714;28;20397;-36
2022/01/10 02:51:56;;;;;;;45.20;15.95;;;;;;;;;;4993944;28;20060;-36
2022/01/10 02:54:25;;;;;;;30.75;14.18;;;;;;;;;;4993616;28;20034;-36
2022/01/10 02:56:53;;;;;;;37.88;16.05;;;;;;;;;;4993622;28;20026;-36
2022/01/10 02:59:19;;;;;;;42.42;16.95;;;;;;;;;;4993331;28;20605;-36
2022/01/10 03:01:45;;;;;;;40.47;16.00;;;;;;;;;;4993806;28;20157;-36
2022/01/10 03:04:11;;;;;;;35.65;15.68;;;;;;;;;;4992234;28;20113;-37
2022/01/10 03:06:38;;;;;;;38.85;15.13;;;;;;;;;;4993452;28;20034;-36
2022/01/10 03:09:05;;;;;;;24.60;11.85;;;;;;;;;;4993726;28;20037;-37
2022/01/10 03:11:38;;;;;;;26.38;11.65;;;;;;;;;;4993282;28;20026;-37
2022/01/10 03:14:04;;;;;;;31.63;13.38;;;;;;;;;;4993682;28;20086;-36
2022/01/10 03:16:30;;;;;;;39.85;16.02;;;;;;;;;;4993279;28;20035;-39
2022/01/10 03:18:55;;;;;;;35.47;15.48;;;;;;;;;;4993333;28;20031;-36
2022/01/10 03:21:21;;;;;;;40.28;16.13;;;;;;;;;;4993546;28;20034;-36
2022/01/10 03:23:48;;;;;;;41.95;16.60;;;;;;;;;;4993623;28;20022;-37
2022/01/10 03:26:14;;;;;;;43.22;16.67;;;;;;;;;;4993581;28;20026;-37
2022/01/10 03:28:39;;;;;;;44.97;16.42;;;;;;;;;;4993457;28;20101;-37
2022/01/10 03:31:05;;;;;;;37.90;15.10;;;;;;;;;;4993154;28;20081;-36
2022/01/10 03:33:30;;;;;;;39.63;14.48;;;;;;;;;;4993032;28;20081;-37
2022/01/10 03:35:55;;;;;;;37.50;14.88;;;;;;;;;;4993148;28;20086;-36
2022/01/10 03:38:21;;;;;;;37.95;14.48;;;;;;;;;;4993315;28;20030;-35
2022/01/10 03:40:47;;;;;;;39.65;15.15;;;;;;;;;;4993100;28;20471;-37
2022/01/10 03:43:12;;;;;;;40.80;16.27;;;;;;;;;;4992196;28;20038;-37
2022/01/10 03:45:38;;;;;;;35.17;15.55;;;;;;;;;;4993315;28;20411;-36
2022/01/10 03:48:04;;;;;;;36.47;15.73;;;;;;;;;;4993280;28;20023;-36
2022/01/10 03:50:29;;;;;;;35.67;15.32;;;;;;;;;;4993213;28;20030;-36
2022/01/10 03:52:55;;;;;;;26.13;13.07;;;;;;;;;;4993143;28;20474;-36
2022/01/10 03:55:20;;;;;;;20.98;10.75;;;;;;;;;;4992887;28;20042;-35
2022/01/10 03:57:46;;;;;;;47.92;20.55;;;;;;;;;;4993201;28;20109;-35
2022/01/10 04:00:13;;;;;;;38.38;18.20;;;;;;;;;;4993187;28;20014;-37
2022/01/10 04:02:39;;;;;;;24.83;11.32;;;;;;;;;;4993156;28;20271;-36
2022/01/10 04:05:05;;;;;;;27.73;13.05;;;;;;;;;;4992888;28;20026;-36
2022/01/10 04:07:31;;;;;;;30.73;13.82;;;;;;;;;;4992788;28;20034;-36
2022/01/10 04:09:56;;;;;;;39.38;16.52;;;;;;;;;;4993083;28;20046;-36
2022/01/10 04:12:22;;;;;;;32.25;13.25;;;;;;;;;;4996089;28;20109;-36
2022/01/10 04:14:47;;;;;;;38.00;14.00;;;;;;;;;;4996924;28;20038;-36
2022/01/10 04:17:13;;;;;;;32.75;13.90;;;;;;;;;;4996558;28;20054;-36
2022/01/10 04:19:39;;;;;;;33.58;13.85;;;;;;;;;;4996572;28;20081;-36
2022/01/10 04:22:04;;;;;;;32.85;13.02;;;;;;;;;;4996448;28;20029;-36
2022/01/10 04:24:30;;;;;;;32.75;13.75;;;;;;;;;;4996400;28;20030;-36
2022/01/10 04:26:56;;;;;;;31.10;13.82;;;;;;;;;;4996708;28;20027;-36
2022/01/10 04:29:21;;;;;;;37.22;16.23;;;;;;;;;;4996395;28;20531;-38
2022/01/10 04:31:47;;;;;;;34.17;14.90;;;;;;;;;;4995002;28;20045;-36
2022/01/10 04:34:12;;;;;;;34.75;13.55;;;;;;;;;;4996511;28;20023;-37
2022/01/10 04:36:38;;;;;;;32.35;14.38;;;;;;;;;;4996192;28;20022;-36
2022/01/10 04:39:04;;;;;;;34.47;13.35;;;;;;;;;;4996215;28;20026;-36
2022/01/10 04:41:29;;;;;;;29.88;12.05;;;;;;;;;;4996135;28;20081;-36
2022/01/10 04:43:55;;;;;;;36.40;15.02;;;;;;;;;;4996101;28;20033;-36
2022/01/10 04:46:20;;;;;;;44.80;15.85;;;;;;;;;;4996271;28;20031;-36
2022/01/10 04:48:46;;;;;;;36.25;14.35;;;;;;;;;;4996032;28;20026;-36
2022/01/10 04:51:16;;;;;;;18.63;9.30;;;;;;;;;;4995950;28;20088;-37
2022/01/10 04:53:45;;;;;;;23.17;8.88;;;;;;;;;;4995896;28;20467;-36
2022/01/10 04:56:12;;;;;;;31.40;14.82;;;;;;;;;;4995677;28;20050;-35
2022/01/10 04:58:39;;;;;;;18.45;11.13;;;;;;;;;;4994543;28;20026;-38
2022/01/10 05:01:05;;;;;;;28.13;11.93;;;;;;;;;;4996005;28;20056;-36
2022/01/10 05:03:31;;;;;;;44.33;15.23;;;;;;;;;;4995606;28;20062;-37
2022/01/10 05:05:57;;;;;;;36.05;13.57;;;;;;;;;;4995868;28;20031;-36
2022/01/10 05:08:23;;;;;;;23.67;11.07;;;;;;;;;;4995756;28;20105;-36
2022/01/10 05:10:50;;;;;;;18.48;8.52;;;;;;;;;;4995476;28;20447;-39
2022/01/10 05:13:16;;;;;;;39.53;12.25;;;;;;;;;;4995552;28;20057;-39
2022/01/10 05:15:46;;;;;;;37.47;14.45;;;;;;;;;;4995399;28;20467;-37
2022/01/10 05:18:12;;;;;;;38.42;14.00;;;;;;;;;;4995706;28;20030;-36
2022/01/10 05:20:38;;;;;;;37.40;15.27;;;;;;;;;;4995300;28;20026;-38
2022/01/10 05:23:03;;;;;;;35.67;14.75;;;;;;;;;;4995497;28;20034;-37
2022/01/10 05:25:29;;;;;;;37.25;15.05;;;;;;;;;;4995593;28;20038;-37
2022/01/10 05:27:55;;;;;;;28.83;13.30;;;;;;;;;;4995278;28;20464;-40
2022/01/10 05:30:20;;;;;;;28.80;12.30;;;;;;;;;;4995407;28;20022;-36
2022/01/10 05:32:46;;;;;;;21.80;9.73;;;;;;;;;;4995384;28;20034;-41
2022/01/10 05:35:12;;;;;;;32.67;14.48;;;;;;;;;;4995377;28;20027;-36
2022/01/10 05:37:37;;;;;;;27.27;12.50;;;;;;;;;;4995036;28;20030;-38
2022/01/10 05:40:03;;;;;;;16.48;7.13;;;;;;;;;;4995002;28;20026;-36
2022/01/10 05:42:28;;;;;;;21.33;8.68;;;;;;;;;;4995212;28;20132;-36
2022/01/10 05:44:54;;;;;;;36.75;13.60;;;;;;;;;;4994919;28;20463;-38
2022/01/10 05:47:19;;;;;;;24.92;11.90;;;;;;;;;;4995100;28;20037;-36
2022/01/10 05:49:48;;;;;;;26.58;11.52;;;;;;;;;;4994794;28;20027;-36
2022/01/10 05:52:14;;;;;;;37.67;14.80;;;;;;;;;;4994917;28;20084;-36
2022/01/10 05:54:39;;;;;;;35.10;14.70;;;;;;;;;;4994640;28;20035;-38
2022/01/10 05:57:06;;;;;;;36.72;13.73;;;;;;;;;;4995044;28;20026;-37
2022/01/10 05:59:31;;;;;;;32.20;13.80;;;;;;;;;;4994942;28;20158;-37
2022/01/10 06:01:58;;;;;;;36.45;13.77;;;;;;;;;;4994932;28;20069;-37
2022/01/10 06:04:23;;;;;;;36.20;14.70;;;;;;;;;;4994587;28;20022;-36
2022/01/10 06:06:49;;;;;;;38.67;15.07;;;;;;;;;;4994786;28;20033;-36
2022/01/10 06:09:14;;;;;;;34.00;13.77;;;;;;;;;;4994510;28;20109;-39
2022/01/10 06:11:40;;;;;;;37.05;14.43;;;;;;;;;;4994402;28;20018;-39
2022/01/10 06:14:07;;;;;;;36.78;15.73;;;;;;;;;;4994662;28;20069;-36
2022/01/10 06:16:33;;;;;;;41.67;15.65;;;;;;;;;;4994532;28;20022;-36
2022/01/10 06:18:58;;;;;;;44.17;15.82;;;;;;;;;;4994497;28;20030;-37
2022/01/10 06:21:24;;;;;;;38.30;15.82;;;;;;;;;;4994225;28;20026;-36
2022/01/10 06:23:49;;;;;;;33.70;15.65;;;;;;;;;;4994109;28;20026;-36
2022/01/10 06:26:15;;;;;;;34.55;14.77;;;;;;;;;;4993212;28;20019;-38
2022/01/10 06:28:40;;;;;;;35.40;15.20;;;;;;;;;;4994044;28;20030;-37
2022/01/10 06:31:06;;;;;;;41.13;15.73;;;;;;;;;;4994373;28;20114;-36
2022/01/10 06:33:31;;;;;;;43.40;16.13;;;;;;;;;;4993374;28;20038;-37
2022/01/10 06:35:57;;;;;;;39.05;15.43;;;;;;;;;;4994197;28;20030;-38
2022/01/10 06:38:22;;;;;;;44.53;17.48;;;;;;;;;;4994149;28;20463;-37
2022/01/10 06:40:48;;;;;;;41.15;15.80;;;;;;;;;;4994184;28;20037;-37
2022/01/10 06:43:13;;;;;;;44.35;17.80;;;;;;;;;;4994178;28;20096;-37
2022/01/10 06:45:39;;;;;;;47.22;17.60;;;;;;;;;;4993877;28;20023;-38
2022/01/10 06:48:05;;;;;;;39.72;16.77;;;;;;;;;;4993806;28;20109;-37
2022/01/10 06:50:30;;;;;;;32.67;8.52;;;;;;;;;;4993697;28;20451;-38
2022/01/10 06:52:57;;;;;;;33.58;13.07;;;;;;;;;;4993834;28;20026;-36
2022/01/10 06:55:22;;;;;;;31.13;12.35;;;;;;;;;;4993587;28;20053;-36
2022/01/10 06:57:48;;;;;;;33.00;13.95;;;;;;;;;;4993844;28;20026;-36
2022/01/10 07:00:13;;;;;;;40.25;15.55;;;;;;;;;;4993794;28;20022;-36
2022/01/10 07:02:39;;;;;;;38.28;16.95;;;;;;;;;;4993646;28;20042;-36
2022/01/10 07:05:05;;;;;;;24.73;11.35;;;;;;;;;;4993579;28;20041;-37
2022/01/10 07:07:30;;;;;;;31.08;15.77;;;;;;;;;;4993738;28;20058;-37
2022/01/10 07:09:56;;;;;;;39.63;14.80;;;;;;;;;;4993349;28;20483;-36
2022/01/10 07:12:21;;;;;;;38.88;15.23;;;;;;;;;;4993541;28;20104;-38
2022/01/10 07:14:47;;;;;;;52.63;22.00;;;;;;;;;;4993644;28;20022;-39
2022/01/10 07:17:12;;;;;;;72.25;24.80;;;;;;;;;;4993381;28;20026;-37
2022/01/10 07:19:38;;;;;;;73.10;30.60;;;;;;;;;;4993335;28;20041;-37
2022/01/10 07:22:04;;;;;;;65.10;21.15;;;;;;;;;;4993245;28;20022;-37
2022/01/10 07:24:29;;;;;;;58.28;20.88;;;;;;;;;;4993476;28;20037;-43
2022/01/10 07:26:55;;;;;;;54.35;19.75;;;;;;;;;;4993252;28;20022;-37
2022/01/10 07:29:20;;;;;;;57.15;20.65;;;;;;;;;;4993416;28;20394;-38
2022/01/10 07:31:46;;;;;;;43.22;18.30;;;;;;;;;;4993081;28;20054;-36
2022/01/10 07:34:15;;;;;;;47.72;19.35;;;;;;;;;;4993053;28;20038;-36
2022/01/10 07:36:41;;;;;;;45.33;18.15;;;;;;;;;;4993401;28;20054;-37
2022/01/10 07:39:07;;;;;;;46.58;18.48;;;;;;;;;;4993146;28;20026;-38
2022/01/10 07:41:33;;;;;;;46.63;20.05;;;;;;;;;;4993365;28;20383;-38
2022/01/10 07:43:59;;;;;;;52.20;20.35;;;;;;;;;;4992997;28;20022;-37
2022/01/10 07:46:26;;;;;;;55.30;19.65;;;;;;;;;;4995069;28;20035;-37
2022/01/10 07:48:54;;;;;;;48.88;20.30;;;;;;;;;;4997379;28;20053;-37
2022/01/10 07:51:19;;;;;;;51.20;19.67;;;;;;;;;;4997066;28;20101;-37
2022/01/10 07:53:45;;;;;;;53.85;19.65;;;;;;;;;;4996997;28;20108;-37
2022/01/10 07:56:10;;;;;;;42.42;17.08;;;;;;;;;;4996862;28;20512;-36
2022/01/10 07:58:37;;;;;;;50.05;17.98;;;;;;;;;;4997145;28;20034;-36
2022/01/10 08:01:03;;;;;;;51.03;18.60;;;;;;;;;;4997061;28;20557;-39
2022/01/10 08:03:29;;;;;;;48.85;17.80;;;;;;;;;;4996859;28;20089;-36
2022/01/10 08:05:54;;;;;;;44.08;16.75;;;;;;;;;;4996984;28;20027;-42
2022/01/10 08:08:20;;;;;;;43.92;16.80;;;;;;;;;;4996762;28;20493;-37
2022/01/10 08:10:45;;;;;;;43.65;17.02;;;;;;;;;;4996932;28;20065;-37
2022/01/10 08:13:11;;;;;;;35.10;14.30;;;;;;;;;;4996770;28;20061;-37
2022/01/10 08:15:37;;;;;;;31.70;12.90;;;;;;;;;;4995736;28;20390;-36
2022/01/10 08:18:05;;;;;;;50.83;19.00;;;;;;;;;;4996261;28;20505;-36
2022/01/10 08:20:30;;;;;;;3.10;2.42;;;;;;;;;;4996460;28;20433;-37
2022/01/10 08:22:55;;;;;;;13.10;8.45;;;;;;;;;;4996560;28;20034;-36
2022/01/10 08:25:21;;;;;;;9.48;5.18;;;;;;;;;;4995175;28;20034;-37
2022/01/10 08:27:47;;;;;;;43.03;15.65;;;;;;;;;;4995250;28;20116;-37
2022/01/10 08:30:12;;;;;;;45.70;17.75;;;;;;;;;;4996361;28;20034;-38
2022/01/10 08:32:38;;;;;;;36.95;15.98;;;;;;;;;;4996270;28;20034;-38
2022/01/10 08:35:05;;;;;;;39.35;17.48;;;;;;;;;;4996583;28;20026;-38
2022/01/10 08:37:30;;;;;;;56.00;26.25;;;;;;;;;;4996210;28;20104;-36
2022/01/10 08:39:56;;;;;;;36.97;17.10;;;;;;;;;;4996500;28;20066;-37
2022/01/10 08:42:23;;;;;;;39.60;17.50;;;;;;;;;;4995335;28;20467;-37
2022/01/10 08:44:49;;;;;;;26.45;12.75;;;;;;;;;;4996133;28;20032;-36
2022/01/10 08:47:15;;;;;;;23.45;11.98;;;;;;;;;;4996346;28;20141;-36
2022/01/10 08:49:41;;;;;;;19.10;9.77;;;;;;;;;;4996233;28;20053;-36
2022/01/10 08:52:08;;;;;;;16.52;7.68;;;;;;;;;;4995931;28;20030;-36
2022/01/10 08:54:33;;;;;;;21.00;11.93;;;;;;;;;;4995786;28;20491;-36
2022/01/10 08:57:00;;;;;;;25.65;12.77;;;;;;;;;;4995658;28;20089;-36
2022/01/10 08:59:28;;;;;;;34.97;16.75;;;;;;;;;;4995816;28;20479;-36
2022/01/10 09:01:57;;;;;;;29.90;16.73;;;;;;;;;;4995795;28;20101;-36
2022/01/10 09:04:23;;;;;;;32.92;18.65;;;;;;;;;;4995958;28;20030;-38
2022/01/10 09:06:51;;;;;;;34.47;18.92;;;;;;;;;;4995609;28;20045;-36
2022/01/10 09:09:17;;;;;;;35.47;18.02;;;;;;;;;;4995969;28;20042;-36
2022/01/10 09:11:43;;;;;;;31.52;18.52;;;;;;;;;;4995723;28;20057;-37
2022/01/10 09:14:10;;;;;;;36.78;20.10;;;;;;;;;;4995771;28;20056;-37
2022/01/10 09:16:36;;;;;;;40.42;21.00;;;;;;;;;;4995560;28;20092;-36
2022/01/10 09:19:03;;;;;;;38.90;20.42;;;;;;;;;;4995513;28;20104;-37
2022/01/10 09:21:28;;;;;;;39.45;21.42;;;;;;;;;;4995738;28;20026;-36
2022/01/10 09:23:54;;;;;;;39.58;22.25;;;;;;;;;;4995698;28;20034;-37
2022/01/10 09:26:19;;;;;;;38.75;20.90;;;;;;;;;;4995568;28;20030;-36
2022/01/10 09:28:45;;;;;;;37.03;21.02;;;;;;;;;;4995530;28;20410;-38
2022/01/10 09:31:11;;;;;;;42.58;21.38;;;;;;;;;;4995162;28;20035;-37
2022/01/10 09:33:37;;;;;;;45.63;22.65;;;;;;;;;;4995228;28;20042;-37
2022/01/10 09:36:03;;;;;;;37.20;21.90;;;;;;;;;;4995767;28;20026;-36
2022/01/10 09:38:28;;;;;;;41.53;21.58;;;;;;;;;;4995361;28;20121;-36
2022/01/10 09:40:54;;;;;;;49.00;27.13;;;;;;;;;;4996154;28;20062;-37
2022/01/10 09:43:21;;;;;;;46.78;26.90;;;;;;;;;;4994969;28;20018;-36
2022/01/10 09:45:47;;;;;;;39.75;22.95;;;;;;;;;;4995236;28;20106;-36
2022/01/10 09:48:13;;;;;;;41.05;23.85;;;;;;;;;;4995364;28;20038;-36
2022/01/10 09:50:39;;;;;;;41.55;25.88;;;;;;;;;;4995009;28;20034;-39
2022/01/10 09:53:05;;;;;;;42.80;23.83;;;;;;;;;;4994802;28;20030;-41
2022/01/10 09:55:36;;;;;;;40.15;24.73;;;;;;;;;;4995151;28;20046;-37
2022/01/10 09:58:03;;;;;;;36.65;23.15;;;;;;;;;;4995114;28;20029;-39
2022/01/10 10:00:29;;;;;;;40.05;23.77;;;;;;;;;;4994900;28;20037;-37
2022/01/10 10:02:55;;;;;;;43.22;25.48;;;;;;;;;;4994960;28;20395;-41
2022/01/10 10:05:20;;;;;;;37.97;23.63;;;;;;;;;;4994183;28;20022;-45
2022/01/10 10:07:46;;;;;;;37.75;24.13;;;;;;;;;;4992913;28;20597;-39
2022/01/10 10:10:13;;;;;;;45.33;24.52;;;;;;;;;;4992028;28;20030;-39
2022/01/10 10:12:41;;;;;;;45.20;25.33;;;;;;;;;;4992768;28;20059;-40
2022/01/10 10:15:09;;;;;;;38.60;22.83;;;;;;;;;;4992771;28;20406;-37
2022/01/10 10:17:36;;;;;;;15.70;10.52;;;;;;;;;;4993923;28;20561;-35
2022/01/10 10:20:10;;;;;;;25.08;14.15;;;;;;;;;;4994376;28;20056;-35
2022/01/10 10:22:43;;;;;;;18.30;10.55;;;;;;;;;;4993991;28;20022;-35
2022/01/10 10:25:10;;;;;;;18.88;10.70;;;;;;;;;;4994044;28;20093;-37
2022/01/10 10:27:41;;;;;;;20.65;13.02;;;;;;;;;;4994250;28;20034;-34
2022/01/10 10:30:11;;;;;;;14.55;9.07;;;;;;;;;;4993954;28;20526;-41
2022/01/10 10:32:37;;;;;;;35.95;19.08;;;;;;;;;;4994137;28;20076;-38
2022/01/10 10:35:07;;;;;;;30.17;16.58;;;;;;;;;;4993772;28;20034;-40
2022/01/10 10:37:37;;;;;;;53.25;24.35;;;;;;;;;;4994153;28;20018;-37
2022/01/10 10:40:06;;;;;;;30.25;17.58;;;;;;;;;;4993764;28;20030;-36
2022/01/10 10:42:32;;;;;;;29.88;16.13;;;;;;;;;;4993744;28;20483;-36
2022/01/10 10:44:58;;;;;;;33.08;17.02;;;;;;;;;;4993864;28;20172;-35
2022/01/10 10:47:27;;;;;;;47.03;20.58;;;;;;;;;;4992677;28;20038;-40
2022/01/10 10:49:58;;;;;;;36.15;18.45;;;;;;;;;;4993699;28;20036;-36
2022/01/10 10:52:37;;;;;;;40.80;21.77;;;;;;;;;;4993543;28;20067;-36
2022/01/10 10:55:05;;;;;;;35.58;17.83;;;;;;;;;;4992103;28;20039;-38
2022/01/10 10:57:32;;;;;;;41.60;20.65;;;;;;;;;;4990671;28;20034;-39
2022/01/10 10:59:59;;;;;;;33.20;14.55;;;;;;;;;;4992178;28;20113;-35
2022/01/10 11:02:26;;;;;;;37.78;18.95;;;;;;;;;;4992954;28;20022;-40
2022/01/10 11:04:52;;;;;;;39.55;17.83;;;;;;;;;;4992532;28;20121;-40
2022/01/10 11:07:21;;;;;;;37.63;19.70;;;;;;;;;;4992909;28;20026;-44
2022/01/10 11:09:48;;;;;;;33.15;19.15;;;;;;;;;;4991172;28;20061;-40
2022/01/10 11:12:16;;;;;;;42.15;21.10;;;;;;;;;;4992604;28;20501;-37
2022/01/10 11:14:42;;;;;;;29.30;15.60;;;;;;;;;;4993183;28;20026;-41
2022/01/10 11:17:17;;;;;;;41.22;19.25;;;;;;;;;;4993343;28;20191;-35
2022/01/10 11:19:43;;;;;;;29.27;15.18;;;;;;;;;;4993435;28;20038;-37
2022/01/10 11:22:11;;;;;;;22.77;12.20;;;;;;;;;;4991966;28;20033;-43
2022/01/10 11:24:52;;;;;;;35.88;17.02;;;;;;;;;;4992230;28;20037;-37
2022/01/10 11:27:32;;;;;;;21.13;10.18;;;;;;;;;;4993132;28;20433;-36
2022/01/10 11:29:58;;;;;;;33.63;18.80;;;;;;;;;;4993451;28;20026;-37
2022/01/10 11:33:07;;;;;;;16.63;10.18;;;;;;;;;;4993436;28;20038;-36
2022/01/10 11:35:39;;;;;;;20.95;12.10;;;;;;;;;;4992606;28;20066;-39
2022/01/10 11:38:23;;;;;;;40.70;22.75;;;;;;;;;;4992968;28;20030;-35
2022/01/10 11:40:53;;;;;;;31.52;14.15;;;;;;;;;;4992924;28;20027;-38
2022/01/10 11:43:33;;;;;;;13.40;8.43;;;;;;;;;;4993585;28;20031;-36
2022/01/10 11:46:26;;;;;;;37.78;19.58;;;;;;;;;;4993086;28;20038;-35
2022/01/10 11:49:00;;;;;;;36.97;18.58;;;;;;;;;;4992710;28;20049;-35
2022/01/10 11:51:37;;;;;;;18.25;10.93;;;;;;;;;;4993255;28;20033;-43
2022/01/10 11:54:19;;;;;;;36.10;19.75;;;;;;;;;;4993217;28;20087;-36
2022/01/10 11:56:49;;;;;;;30.13;15.52;;;;;;;;;;4992951;28;20039;-35
2022/01/10 11:59:56;;;;;;;24.35;14.52;;;;;;;;;;4993208;28;20018;-37
2022/01/10 12:02:24;;;;;;;34.00;16.80;;;;;;;;;;4992213;28;20035;-36
2022/01/10 12:04:53;;;;;;;36.53;19.10;;;;;;;;;;4993130;28;20034;-35
2022/01/10 12:07:26;;;;;;;37.90;20.15;;;;;;;;;;4993072;28;20129;-37
2022/01/10 12:09:53;;;;;;;37.50;19.17;;;;;;;;;;4992511;28;20493;-37
2022/01/10 12:12:21;;;;;;;41.20;21.73;;;;;;;;;;4992825;28;20041;-38
2022/01/10 12:14:48;;;;;;;35.90;19.50;;;;;;;;;;4992607;28;20030;-37
2022/01/10 12:17:14;;;;;;;36.80;19.50;;;;;;;;;;4992779;28;20105;-36
2022/01/10 12:19:41;;;;;;;36.20;19.08;;;;;;;;;;4992618;28;20482;-44
2022/01/10 12:22:07;;;;;;;35.20;19.23;;;;;;;;;;4992628;28;20036;-39
2022/01/10 12:24:35;;;;;;;35.33;19.48;;;;;;;;;;4992536;28;20478;-38
2022/01/10 12:27:02;;;;;;;35.17;19.85;;;;;;;;;;4992524;28;20109;-43
2022/01/10 12:29:29;;;;;;;23.98;13.00;;;;;;;;;;4992828;28;20352;-36
2022/01/10 12:31:55;;;;;;;33.97;18.05;;;;;;;;;;4993639;28;20035;-36
2022/01/10 12:34:20;;;;;;;32.55;18.80;;;;;;;;;;4996472;28;20529;-36
2022/01/10 12:36:46;;;;;;;13.43;8.68;;;;;;;;;;4996392;28;20038;-39
2022/01/10 12:39:21;;;;;;;23.92;12.80;;;;;;;;;;4996301;28;20085;-35
2022/01/10 12:41:47;;;;;;;31.83;17.98;;;;;;;;;;4996268;28;20423;-42
2022/01/10 12:44:13;;;;;;;25.33;13.70;;;;;;;;;;4996039;28;20052;-36
2022/01/10 12:46:38;;;;;;;33.78;17.42;;;;;;;;;;4996275;28;20485;-35
2022/01/10 12:49:07;;;;;;;36.78;18.00;;;;;;;;;;4996239;28;20068;-37
2022/01/10 12:51:43;;;;;;;30.67;15.45;;;;;;;;;;4995963;28;20030;-36
2022/01/10 12:54:17;;;;;;;38.80;18.92;;;;;;;;;;4995928;28;20173;-37
2022/01/10 12:56:43;;;;;;;26.65;13.27;;;;;;;;;;4995642;28;20037;-44
2022/01/10 12:59:14;;;;;;;28.80;15.45;;;;;;;;;;4995594;28;20026;-36
2022/01/10 13:01:40;;;;;;;25.83;15.40;;;;;;;;;;4994631;28;20081;-37
2022/01/10 13:04:06;;;;;;;25.95;13.10;;;;;;;;;;4995540;28;20042;-35
2022/01/10 13:06:35;;;;;;;22.00;8.15;;;;;;;;;;4995524;28;20026;-37
2022/01/10 13:09:01;;;;;;;21.90;11.65;;;;;;;;;;4995869;28;20030;-37
2022/01/10 13:11:42;;;;;;;28.73;14.95;;;;;;;;;;4995885;28;20034;-37
2022/01/10 13:14:13;;;;;;;18.92;10.88;;;;;;;;;;4995629;28;20486;-37
2022/01/10 13:16:40;;;;;;;25.65;11.98;;;;;;;;;;4995436;28;20038;-36
2022/01/10 13:19:08;;;;;;;26.60;14.02;;;;;;;;;;4995471;28;20110;-39
2022/01/10 13:21:40;;;;;;;31.08;13.52;;;;;;;;;;4995189;28;20026;-38
2022/01/10 13:24:27;;;;;;;36.25;18.77;;;;;;;;;;4995175;28;20038;-38
2022/01/10 13:26:59;;;;;;;34.72;18.58;;;;;;;;;;4995497;28;20031;-35
2022/01/10 13:29:42;;;;;;;41.83;21.02;;;;;;;;;;4995349;28;20486;-38
2022/01/10 13:32:29;;;;;;;23.25;14.52;;;;;;;;;;4994650;28;20113;-38
2022/01/10 13:35:10;;;;;;;42.70;19.80;;;;;;;;;;4991914;28;20022;-42
2022/01/10 13:37:46;;;;;;;48.50;20.42;;;;;;;;;;4994091;28;20029;-44
2022/01/10 13:40:23;;;;;;;40.78;20.83;;;;;;;;;;4993757;28;20033;-37
2022/01/10 13:43:04;;;;;;;27.58;14.50;;;;;;;;;;4994719;28;20041;-37
2022/01/10 13:45:50;;;;;;;27.58;13.80;;;;;;;;;;4995346;28;20034;-36
2022/01/10 13:48:39;;;;;;;19.67;10.82;;;;;;;;;;4995138;28;20034;-39
2022/01/10 13:51:12;;;;;;;26.70;12.15;;;;;;;;;;4991963;28;20116;-36
2022/01/10 13:53:50;;;;;;;15.38;10.20;;;;;;;;;;4995416;28;20092;-36
2022/01/10 13:56:19;;;;;;;26.20;15.15;;;;;;;;;;4994697;28;20129;-36
2022/01/10 13:58:48;;;;;;;17.50;10.30;;;;;;;;;;4995089;28;20034;-36
2022/01/10 14:01:22;;;;;;;30.77;14.15;;;;;;;;;;4994751;28;20101;-37
2022/01/10 14:03:50;;;;;;;19.10;11.45;;;;;;;;;;4994813;28;20041;-37
2022/01/10 14:06:21;;;;;;;41.85;20.38;;;;;;;;;;4994648;28;20034;-42
2022/01/10 14:09:05;;;;;;;24.25;10.52;;;;;;;;;;4994073;28;20569;-39
2022/01/10 14:11:36;;;;;;;37.50;17.60;;;;;;;;;;4993168;28;20041;-37
2022/01/10 14:14:09;;;;;;;45.67;21.50;;;;;;;;;;4992964;28;20084;-42
2022/01/10 14:16:39;;;;;;;38.85;19.65;;;;;;;;;;4992776;28;20133;-36
2022/01/10 14:19:07;;;;;;;39.92;19.42;;;;;;;;;;4992635;28;20122;-40
2022/01/10 14:21:33;;;;;;;41.25;20.75;;;;;;;;;;4992975;28;20030;-39
2022/01/10 14:23:58;;;;;;;47.22;19.63;;;;;;;;;;4992678;28;20087;-38
2022/01/10 14:26:24;;;;;;;33.60;14.75;;;;;;;;;;4992897;28;20030;-36
2022/01/10 14:28:50;;;;;;;29.13;14.35;;;;;;;;;;4993158;28;20049;-37
2022/01/10 14:31:17;;;;;;;20.27;10.43;;;;;;;;;;4993020;28;20026;-35